sensor_id;sensor_type;location;lat;lon;timestamp;P1;durP1;ratioP1;P2;durP2;ratioP2
71759;SDS011;59919;48.112;16.280;2023-02-28T14:26:07;18.67;;;3.40;;
71759;SDS011;59919;48.112;16.280;2023-02-28T14:31:37;13.75;;;3.20;;
71759;SDS011;59919;48.112;16.280;2023-02-28T14:34:26;13.80;;;3.83;;
71759;SDS011;59919;48.112;16.280;2023-02-28T14:37:01;16.77;;;3.90;;
71759;SDS011;59919;48.112;16.280;2023-02-28T14:39:33;16.65;;;3.28;;
71759;SDS011;59919;48.112;16.280;2023-02-28T14:42:24;16.13;;;3.80;;
71759;SDS011;59919;48.112;16.280;2023-02-28T14:45:01;17.80;;;3.70;;
71759;SDS011;59919;48.112;16.280;2023-02-28T14:47:33;13.65;;;3.65;;
71759;SDS011;59919;48.112;16.280;2023-02-28T14:50:17;18.42;;;3.58;;
71759;SDS011;59919;48.112;16.280;2023-02-28T14:52:53;21.90;;;3.70;;
71759;SDS011;59919;48.112;16.280;2023-02-28T14:55:29;5.97;;;2.95;;
71759;SDS011;59919;48.112;16.280;2023-02-28T14:58:05;14.20;;;3.33;;
71759;SDS011;59919;48.112;16.280;2023-02-28T15:00:51;12.68;;;3.70;;
71759;SDS011;59919;48.112;16.280;2023-02-28T15:06:00;9.02;;;3.08;;
71759;SDS011;59919;48.112;16.280;2023-02-28T15:08:33;7.72;;;3.20;;
71759;SDS011;59919;48.112;16.280;2023-02-28T15:13:53;10.65;;;3.33;;
71759;SDS011;59919;48.112;16.280;2023-02-28T15:16:39;13.15;;;3.33;;
71759;SDS011;59919;48.112;16.280;2023-02-28T15:19:21;8.07;;;3.05;;
71759;SDS011;59919;48.112;16.280;2023-02-28T15:22:04;10.55;;;3.05;;
71759;SDS011;59919;48.112;16.280;2023-02-28T15:24:50;7.22;;;2.90;;
71759;SDS011;59919;48.112;16.280;2023-02-28T15:27:32;7.88;;;2.97;;
71759;SDS011;59919;48.112;16.280;2023-02-28T15:30:07;5.53;;;2.50;;
71759;SDS011;59919;48.112;16.280;2023-02-28T15:32:44;8.48;;;3.20;;
71759;SDS011;59919;48.112;16.280;2023-02-28T15:37:57;5.80;;;2.80;;
71759;SDS011;59919;48.112;16.280;2023-02-28T15:40:36;8.25;;;3.25;;
71759;SDS011;59919;48.112;16.280;2023-02-28T15:43:25;7.97;;;3.47;;
71759;SDS011;59919;48.112;16.280;2023-02-28T15:46:02;11.88;;;2.95;;
71759;SDS011;59919;48.112;16.280;2023-02-28T15:48:42;5.97;;;3.00;;
71759;SDS011;59919;48.112;16.280;2023-02-28T15:51:35;5.63;;;3.10;;
71759;SDS011;59919;48.112;16.280;2023-02-28T15:54:14;8.75;;;3.13;;
71759;SDS011;59919;48.112;16.280;2023-02-28T15:57:00;7.57;;;2.80;;
71759;SDS011;59919;48.112;16.280;2023-02-28T15:59:35;4.40;;;3.00;;
71759;SDS011;59919;48.112;16.280;2023-02-28T16:02:21;9.40;;;3.08;;
71759;SDS011;59919;48.112;16.280;2023-02-28T16:07:41;6.00;;;2.95;;
71759;SDS011;59919;48.112;16.280;2023-02-28T16:10:15;6.05;;;2.90;;
71759;SDS011;59919;48.112;16.280;2023-02-28T16:12:46;6.97;;;2.95;;
71759;SDS011;59919;48.112;16.280;2023-02-28T16:15:28;4.82;;;2.78;;
71759;SDS011;59919;48.112;16.280;2023-02-28T16:18:01;5.05;;;2.60;;
71759;SDS011;59919;48.112;16.280;2023-02-28T16:20:33;6.15;;;3.03;;
71759;SDS011;59919;48.112;16.280;2023-02-28T16:23:04;4.30;;;3.00;;
71759;SDS011;59919;48.112;16.280;2023-02-28T16:25:36;5.35;;;2.80;;
71759;SDS011;59919;48.112;16.280;2023-02-28T16:28:12;6.40;;;2.92;;
71759;SDS011;59919;48.112;16.280;2023-02-28T16:30:45;6.67;;;3.23;;
71759;SDS011;59919;48.112;16.280;2023-02-28T16:33:19;4.20;;;3.10;;
71759;SDS011;59919;48.112;16.280;2023-02-28T16:35:50;4.93;;;2.97;;
71759;SDS011;59919;48.112;16.280;2023-02-28T16:38:21;6.78;;;2.90;;
71759;SDS011;59919;48.112;16.280;2023-02-28T16:40:59;4.40;;;2.83;;
71759;SDS011;59919;48.112;16.280;2023-02-28T16:43:34;4.13;;;3.20;;
71759;SDS011;59919;48.112;16.280;2023-02-28T16:46:08;5.07;;;2.80;;
71759;SDS011;59919;48.112;16.280;2023-02-28T16:48:42;5.00;;;3.33;;
71759;SDS011;59919;48.112;16.280;2023-02-28T16:51:17;5.88;;;3.30;;
71759;SDS011;59919;48.112;16.280;2023-02-28T16:53:49;6.10;;;3.03;;
71759;SDS011;59919;48.112;16.280;2023-02-28T16:56:23;9.40;;;4.00;;
71759;SDS011;59919;48.112;16.280;2023-02-28T16:58:57;9.38;;;2.88;;
71759;SDS011;59919;48.112;16.280;2023-02-28T17:01:31;5.22;;;3.20;;
71759;SDS011;59919;48.112;16.280;2023-02-28T17:04:03;8.25;;;3.50;;
71759;SDS011;59919;48.112;16.280;2023-02-28T17:06:34;6.22;;;3.38;;
71759;SDS011;59919;48.112;16.280;2023-02-28T17:09:05;11.45;;;3.35;;
71759;SDS011;59919;48.112;16.280;2023-02-28T17:11:44;7.25;;;3.22;;
71759;SDS011;59919;48.112;16.280;2023-02-28T17:14:16;9.00;;;3.15;;
71759;SDS011;59919;48.112;16.280;2023-02-28T17:16:47;6.35;;;3.22;;
71759;SDS011;59919;48.112;16.280;2023-02-28T17:19:18;9.70;;;3.42;;
71759;SDS011;59919;48.112;16.280;2023-02-28T17:21:51;6.65;;;3.40;;
71759;SDS011;59919;48.112;16.280;2023-02-28T17:24:22;8.35;;;3.05;;
71759;SDS011;59919;48.112;16.280;2023-02-28T17:26:53;6.30;;;3.42;;
71759;SDS011;59919;48.112;16.280;2023-02-28T17:29:27;8.48;;;3.38;;
71759;SDS011;59919;48.112;16.280;2023-02-28T17:31:58;5.90;;;2.90;;
71759;SDS011;59919;48.112;16.280;2023-02-28T17:34:30;8.77;;;3.08;;
71759;SDS011;59919;48.112;16.280;2023-02-28T17:37:01;7.90;;;3.70;;
71759;SDS011;59919;48.112;16.280;2023-02-28T17:39:35;5.80;;;3.67;;
71759;SDS011;59919;48.112;16.280;2023-02-28T17:42:08;6.38;;;3.42;;
71759;SDS011;59919;48.112;16.280;2023-02-28T17:44:41;5.90;;;3.60;;
71759;SDS011;59919;48.112;16.280;2023-02-28T17:47:15;9.03;;;3.40;;
71759;SDS011;59919;48.112;16.280;2023-02-28T17:49:46;7.10;;;3.40;;
71759;SDS011;59919;48.112;16.280;2023-02-28T17:52:18;7.20;;;3.78;;
71759;SDS011;59919;48.112;16.280;2023-02-28T17:54:51;6.57;;;3.58;;
71759;SDS011;59919;48.112;16.280;2023-02-28T17:57:25;5.85;;;3.45;;
71759;SDS011;59919;48.112;16.280;2023-02-28T17:59:58;6.10;;;3.30;;
71759;SDS011;59919;48.112;16.280;2023-02-28T18:02:35;4.53;;;3.45;;
71759;SDS011;59919;48.112;16.280;2023-02-28T18:05:13;7.82;;;3.67;;
71759;SDS011;59919;48.112;16.280;2023-02-28T18:07:46;6.50;;;3.60;;
71759;SDS011;59919;48.112;16.280;2023-02-28T18:10:18;4.90;;;3.47;;
71759;SDS011;59919;48.112;16.280;2023-02-28T18:12:51;7.70;;;3.78;;
71759;SDS011;59919;48.112;16.280;2023-02-28T18:15:25;5.40;;;3.33;;
71759;SDS011;59919;48.112;16.280;2023-02-28T18:17:57;5.00;;;3.42;;
71759;SDS011;59919;48.112;16.280;2023-02-28T18:20:28;5.85;;;4.05;;
71759;SDS011;59919;48.112;16.280;2023-02-28T18:22:59;4.25;;;3.40;;
71759;SDS011;59919;48.112;16.280;2023-02-28T18:25:31;4.88;;;3.67;;
71759;SDS011;59919;48.112;16.280;2023-02-28T18:28:05;9.20;;;3.83;;
71759;SDS011;59919;48.112;16.280;2023-02-28T18:30:36;5.50;;;3.63;;
71759;SDS011;59919;48.112;16.280;2023-02-28T18:33:07;7.22;;;3.53;;
71759;SDS011;59919;48.112;16.280;2023-02-28T18:35:39;5.65;;;3.80;;
71759;SDS011;59919;48.112;16.280;2023-02-28T18:38:15;7.13;;;3.80;;
71759;SDS011;59919;48.112;16.280;2023-02-28T18:40:55;6.78;;;3.58;;
71759;SDS011;59919;48.112;16.280;2023-02-28T18:43:30;6.45;;;3.97;;
71759;SDS011;59919;48.112;16.280;2023-02-28T18:46:05;5.47;;;3.85;;
71759;SDS011;59919;48.112;16.280;2023-02-28T18:48:38;5.50;;;4.00;;
71759;SDS011;59919;48.112;16.280;2023-02-28T18:53:45;6.07;;;3.70;;
71759;SDS011;59919;48.112;16.280;2023-02-28T18:56:17;6.47;;;4.35;;
71759;SDS011;59919;48.112;16.280;2023-02-28T18:58:51;5.35;;;4.13;;
71759;SDS011;59919;48.112;16.280;2023-02-28T19:01:25;5.53;;;3.95;;
71759;SDS011;59919;48.112;16.280;2023-02-28T19:04:01;5.03;;;3.67;;
71759;SDS011;59919;48.112;16.280;2023-02-28T19:06:35;5.10;;;4.20;;
71759;SDS011;59919;48.112;16.280;2023-02-28T19:09:09;6.07;;;4.00;;
71759;SDS011;59919;48.112;16.280;2023-02-28T19:11:42;5.10;;;4.15;;
71759;SDS011;59919;48.112;16.280;2023-02-28T19:14:14;5.22;;;4.07;;
71759;SDS011;59919;48.112;16.280;2023-02-28T19:16:45;4.30;;;3.90;;
71759;SDS011;59919;48.112;16.280;2023-02-28T19:19:19;5.75;;;3.90;;
71759;SDS011;59919;48.112;16.280;2023-02-28T19:21:50;6.18;;;4.10;;
71759;SDS011;59919;48.112;16.280;2023-02-28T19:24:24;5.05;;;3.95;;
71759;SDS011;59919;48.112;16.280;2023-02-28T19:26:55;5.88;;;4.50;;
71759;SDS011;59919;48.112;16.280;2023-02-28T19:29:26;5.75;;;4.65;;
71759;SDS011;59919;48.112;16.280;2023-02-28T19:32:00;6.45;;;3.83;;
71759;SDS011;59919;48.112;16.280;2023-02-28T19:34:33;7.97;;;4.35;;
71759;SDS011;59919;48.112;16.280;2023-02-28T19:37:04;6.20;;;4.35;;
71759;SDS011;59919;48.112;16.280;2023-02-28T19:39:38;5.70;;;4.60;;
71759;SDS011;59919;48.112;16.280;2023-02-28T19:42:13;6.00;;;4.30;;
71759;SDS011;59919;48.112;16.280;2023-02-28T19:44:45;5.00;;;4.00;;
71759;SDS011;59919;48.112;16.280;2023-02-28T19:47:16;5.50;;;4.47;;
71759;SDS011;59919;48.112;16.280;2023-02-28T19:49:50;5.60;;;4.68;;
71759;SDS011;59919;48.112;16.280;2023-02-28T19:52:24;5.80;;;4.47;;
71759;SDS011;59919;48.112;16.280;2023-02-28T19:54:55;5.28;;;4.30;;
71759;SDS011;59919;48.112;16.280;2023-02-28T19:57:27;6.05;;;4.18;;
71759;SDS011;59919;48.112;16.280;2023-02-28T20:00:00;5.82;;;4.43;;
71759;SDS011;59919;48.112;16.280;2023-02-28T20:02:31;4.95;;;4.30;;
71759;SDS011;59919;48.112;16.280;2023-02-28T20:05:02;5.07;;;4.38;;
71759;SDS011;59919;48.112;16.280;2023-02-28T20:07:36;5.63;;;4.57;;
71759;SDS011;59919;48.112;16.280;2023-02-28T20:10:07;5.03;;;4.32;;
71759;SDS011;59919;48.112;16.280;2023-02-28T20:12:44;5.88;;;4.55;;
71759;SDS011;59919;48.112;16.280;2023-02-28T20:15:16;4.68;;;4.10;;
71759;SDS011;59919;48.112;16.280;2023-02-28T20:17:47;6.25;;;4.40;;
71759;SDS011;59919;48.112;16.280;2023-02-28T20:20:20;5.72;;;4.60;;
71759;SDS011;59919;48.112;16.280;2023-02-28T20:22:54;6.57;;;4.03;;
71759;SDS011;59919;48.112;16.280;2023-02-28T20:25:25;6.88;;;4.70;;
71759;SDS011;59919;48.112;16.280;2023-02-28T20:27:56;7.45;;;5.25;;
71759;SDS011;59919;48.112;16.280;2023-02-28T20:30:27;5.43;;;4.70;;
71759;SDS011;59919;48.112;16.280;2023-02-28T20:32:58;4.60;;;3.92;;
71759;SDS011;59919;48.112;16.280;2023-02-28T20:35:29;6.22;;;4.65;;
71759;SDS011;59919;48.112;16.280;2023-02-28T20:38:03;6.05;;;4.20;;
71759;SDS011;59919;48.112;16.280;2023-02-28T20:40:39;7.82;;;5.30;;
71759;SDS011;59919;48.112;16.280;2023-02-28T20:43:10;6.43;;;4.82;;
71759;SDS011;59919;48.112;16.280;2023-02-28T20:45:49;6.45;;;5.22;;
71759;SDS011;59919;48.112;16.280;2023-02-28T20:48:22;6.15;;;4.68;;
71759;SDS011;59919;48.112;16.280;2023-02-28T20:50:54;6.45;;;5.07;;
71759;SDS011;59919;48.112;16.280;2023-02-28T20:53:26;6.13;;;4.65;;
71759;SDS011;59919;48.112;16.280;2023-02-28T20:56:01;6.32;;;4.80;;
71759;SDS011;59919;48.112;16.280;2023-02-28T20:58:36;6.07;;;4.65;;
71759;SDS011;59919;48.112;16.280;2023-02-28T21:01:12;6.88;;;4.85;;
71759;SDS011;59919;48.112;16.280;2023-02-28T21:03:47;6.20;;;5.00;;
71759;SDS011;59919;48.112;16.280;2023-02-28T21:06:26;5.32;;;4.25;;
71759;SDS011;59919;48.112;16.280;2023-02-28T21:08:59;5.72;;;4.80;;
71759;SDS011;59919;48.112;16.280;2023-02-28T21:11:33;6.45;;;4.47;;
71759;SDS011;59919;48.112;16.280;2023-02-28T21:14:11;6.93;;;5.07;;
71759;SDS011;59919;48.112;16.280;2023-02-28T21:16:44;7.10;;;4.90;;
71759;SDS011;59919;48.112;16.280;2023-02-28T21:19:16;6.68;;;4.72;;
71759;SDS011;59919;48.112;16.280;2023-02-28T21:21:49;5.88;;;4.78;;
71759;SDS011;59919;48.112;16.280;2023-02-28T21:24:20;5.63;;;4.85;;
71759;SDS011;59919;48.112;16.280;2023-02-28T21:26:52;6.13;;;4.47;;
71759;SDS011;59919;48.112;16.280;2023-02-28T21:29:23;5.88;;;4.65;;
71759;SDS011;59919;48.112;16.280;2023-02-28T21:31:54;6.60;;;5.05;;
71759;SDS011;59919;48.112;16.280;2023-02-28T21:34:25;6.50;;;5.32;;
71759;SDS011;59919;48.112;16.280;2023-02-28T21:36:57;5.72;;;4.70;;
71759;SDS011;59919;48.112;16.280;2023-02-28T21:39:28;5.18;;;4.22;;
71759;SDS011;59919;48.112;16.280;2023-02-28T21:42:00;6.80;;;5.13;;
71759;SDS011;59919;48.112;16.280;2023-02-28T21:44:33;7.75;;;5.13;;
71759;SDS011;59919;48.112;16.280;2023-02-28T21:47:06;6.13;;;4.57;;
71759;SDS011;59919;48.112;16.280;2023-02-28T21:49:37;7.47;;;4.80;;
71759;SDS011;59919;48.112;16.280;2023-02-28T21:52:13;5.78;;;4.68;;
71759;SDS011;59919;48.112;16.280;2023-02-28T21:54:45;6.78;;;4.90;;
71759;SDS011;59919;48.112;16.280;2023-02-28T21:57:16;7.68;;;5.57;;
71759;SDS011;59919;48.112;16.280;2023-02-28T21:59:47;6.30;;;4.80;;
71759;SDS011;59919;48.112;16.280;2023-02-28T22:02:19;5.82;;;4.57;;
71759;SDS011;59919;48.112;16.280;2023-02-28T22:04:55;6.03;;;4.68;;
71759;SDS011;59919;48.112;16.280;2023-02-28T22:07:33;6.60;;;4.90;;
71759;SDS011;59919;48.112;16.280;2023-02-28T22:10:06;6.22;;;4.82;;
71759;SDS011;59919;48.112;16.280;2023-02-28T22:12:38;5.50;;;4.82;;
71759;SDS011;59919;48.112;16.280;2023-02-28T22:15:09;5.70;;;4.55;;
71759;SDS011;59919;48.112;16.280;2023-02-28T22:17:42;6.10;;;5.30;;
71759;SDS011;59919;48.112;16.280;2023-02-28T22:20:13;5.75;;;4.80;;
71759;SDS011;59919;48.112;16.280;2023-02-28T22:22:46;5.30;;;4.38;;
71759;SDS011;59919;48.112;16.280;2023-02-28T22:25:18;5.95;;;4.60;;
71759;SDS011;59919;48.112;16.280;2023-02-28T22:27:52;5.85;;;4.93;;
71759;SDS011;59919;48.112;16.280;2023-02-28T22:30:30;5.82;;;4.45;;
71759;SDS011;59919;48.112;16.280;2023-02-28T22:33:01;5.95;;;4.60;;
71759;SDS011;59919;48.112;16.280;2023-02-28T22:35:32;6.85;;;5.22;;
71759;SDS011;59919;48.112;16.280;2023-02-28T22:38:03;6.03;;;4.70;;
71759;SDS011;59919;48.112;16.280;2023-02-28T22:40:35;6.05;;;4.70;;
71759;SDS011;59919;48.112;16.280;2023-02-28T22:43:09;6.35;;;4.90;;
71759;SDS011;59919;48.112;16.280;2023-02-28T22:45:43;6.82;;;5.30;;
71759;SDS011;59919;48.112;16.280;2023-02-28T22:48:14;6.43;;;4.90;;
71759;SDS011;59919;48.112;16.280;2023-02-28T22:50:50;6.40;;;5.28;;
71759;SDS011;59919;48.112;16.280;2023-02-28T22:53:21;6.22;;;5.10;;
71759;SDS011;59919;48.112;16.280;2023-02-28T22:55:53;5.40;;;4.85;;
71759;SDS011;59919;48.112;16.280;2023-02-28T22:58:25;6.43;;;5.00;;
71759;SDS011;59919;48.112;16.280;2023-02-28T23:01:06;6.55;;;5.15;;
71759;SDS011;59919;48.112;16.280;2023-02-28T23:03:38;6.18;;;4.90;;
71759;SDS011;59919;48.112;16.280;2023-02-28T23:06:14;6.45;;;5.18;;
71759;SDS011;59919;48.112;16.280;2023-02-28T23:08:55;6.85;;;4.85;;
71759;SDS011;59919;48.112;16.280;2023-02-28T23:11:33;7.72;;;5.25;;
71759;SDS011;59919;48.112;16.280;2023-02-28T23:14:06;6.70;;;5.10;;
71759;SDS011;59919;48.112;16.280;2023-02-28T23:16:43;6.45;;;4.97;;
71759;SDS011;59919;48.112;16.280;2023-02-28T23:19:20;6.10;;;5.13;;
71759;SDS011;59919;48.112;16.280;2023-02-28T23:21:57;7.20;;;5.35;;
71759;SDS011;59919;48.112;16.280;2023-02-28T23:24:33;5.82;;;4.68;;
71759;SDS011;59919;48.112;16.280;2023-02-28T23:27:05;6.25;;;4.72;;
71759;SDS011;59919;48.112;16.280;2023-02-28T23:29:36;6.28;;;5.13;;
71759;SDS011;59919;48.112;16.280;2023-02-28T23:32:07;6.80;;;5.20;;
71759;SDS011;59919;48.112;16.280;2023-02-28T23:34:40;6.93;;;5.25;;
71759;SDS011;59919;48.112;16.280;2023-02-28T23:37:12;7.50;;;5.35;;
71759;SDS011;59919;48.112;16.280;2023-02-28T23:39:43;6.55;;;5.38;;
71759;SDS011;59919;48.112;16.280;2023-02-28T23:42:18;6.43;;;4.97;;
71759;SDS011;59919;48.112;16.280;2023-02-28T23:44:49;7.28;;;5.65;;
71759;SDS011;59919;48.112;16.280;2023-02-28T23:47:21;6.90;;;5.30;;
71759;SDS011;59919;48.112;16.280;2023-02-28T23:49:52;6.88;;;5.47;;
71759;SDS011;59919;48.112;16.280;2023-02-28T23:52:23;7.28;;;5.28;;
71759;SDS011;59919;48.112;16.280;2023-02-28T23:54:54;6.80;;;5.05;;
71759;SDS011;59919;48.112;16.280;2023-02-28T23:57:28;7.15;;;5.50;;
71759;SDS011;59919;48.112;16.280;2023-02-28T23:59:59;7.55;;;5.18;;
